Time;durP1;ratioP1;P1;durP2;ratioP2;P2;SDS_P1;SDS_P2;PMS_P1;PMS_P2;Temp;Humidity;BMP_temperature;BMP_pressure;BME280_temperature;BME280_humidity;BME280_pressure;Samples;Min_cycle;Max_cycle;Signal;HPM_P1;HPM_P2
2021/11/03 00:00:33;;;;;;;14.53;13.57;;;4.90;99.90;;;;;;5014959;28;20195;-79
2021/11/03 00:03:02;;;;;;;14.80;13.80;;;4.90;99.90;;;;;;5012640;28;20205;-79
2021/11/03 00:05:29;;;;;;;15.43;14.33;;;5.00;99.90;;;;;;5014522;28;20224;-79
2021/11/03 00:07:56;;;;;;;15.97;14.43;;;5.10;99.90;;;;;;5015323;28;20197;-79
2021/11/03 00:10:24;;;;;;;14.93;13.93;;;5.00;99.90;;;;;;5013753;28;20215;-79
2021/11/03 00:12:52;;;;;;;14.93;13.93;;;5.00;99.90;;;;;;4989118;28;20625;-79
2021/11/03 00:15:19;;;;;;;14.37;13.47;;;5.00;99.90;;;;;;5011544;28;20236;-77
2021/11/03 00:17:46;;;;;;;15.33;14.33;;;5.10;99.90;;;;;;5022350;28;20259;-78
2021/11/03 00:20:14;;;;;;;15.30;14.30;;;5.20;99.90;;;;;;5018232;28;20213;-79
2021/11/03 00:22:41;;;;;;;14.57;13.57;;;5.20;99.90;;;;;;5023474;28;20199;-80
2021/11/03 00:25:08;;;;;;;15.40;14.40;;;5.30;99.90;;;;;;5014509;28;20221;-79
2021/11/03 00:27:35;;;;;;;15.17;14.17;;;5.30;99.90;;;;;;5020201;28;20204;-79
2021/11/03 00:30:04;;;;;;;15.00;14.00;;;5.30;99.90;;;;;;5020993;28;20196;-78
2021/11/03 00:32:31;;;;;;;15.23;14.13;;;5.30;99.90;;;;;;5011708;28;20672;-79
2021/11/03 00:34:58;;;;;;;15.37;14.37;;;5.20;99.90;;;;;;5012101;28;20221;-79
2021/11/03 00:37:24;;;;;;;15.47;14.37;;;5.20;99.90;;;;;;5012262;28;20200;-79
2021/11/03 00:39:51;;;;;;;15.63;14.63;;;5.20;99.90;;;;;;4996775;28;20213;-79
2021/11/03 00:42:18;;;;;;;16.17;14.97;;;5.20;99.90;;;;;;5010433;28;20205;-79
2021/11/03 00:44:45;;;;;;;15.87;14.80;;;5.20;99.90;;;;;;5007554;28;20236;-79
2021/11/03 00:47:13;;;;;;;16.23;15.00;;;5.20;99.90;;;;;;5009740;28;20220;-79
2021/11/03 00:49:40;;;;;;;15.10;14.10;;;5.30;99.90;;;;;;5014420;28;20215;-78
2021/11/03 00:52:08;;;;;;;16.27;14.87;;;5.30;99.90;;;;;;5010427;28;20552;-79
2021/11/03 00:54:37;;;;;;;16.33;15.23;;;5.30;99.90;;;;;;5005811;28;20220;-79
2021/11/03 00:57:05;;;;;;;15.97;14.97;;;5.30;99.90;;;;;;5009603;28;20680;-79
2021/11/03 00:59:32;;;;;;;16.10;15.00;;;5.40;99.90;;;;;;5012535;28;20261;-79
2021/11/03 01:01:59;;;;;;;15.20;14.03;;;5.40;99.90;;;;;;5008735;28;20208;-79
2021/11/03 01:04:28;;;;;;;14.90;13.90;;;5.40;99.90;;;;;;5011733;28;20228;-79
2021/11/03 01:06:55;;;;;;;15.30;14.20;;;5.50;99.90;;;;;;5007765;28;20193;-79
2021/11/03 01:09:21;;;;;;;15.00;14.00;;;5.40;99.90;;;;;;5010016;28;20209;-79
2021/11/03 01:11:49;;;;;;;15.33;14.23;;;5.40;99.90;;;;;;5016057;28;20208;-79
2021/11/03 01:14:16;;;;;;;15.60;14.60;;;5.50;99.90;;;;;;5009290;28;20560;-79
2021/11/03 01:16:43;;;;;;;15.63;14.63;;;5.50;99.90;;;;;;5012006;28;20218;-79
2021/11/03 01:19:11;;;;;;;13.37;12.43;;;5.40;99.90;;;;;;5017289;28;20243;-79
2021/11/03 01:21:42;;;;;;;9.63;8.73;;;5.50;99.90;;;;;;5019566;28;20204;-79
2021/11/03 01:24:09;;;;;;;16.43;15.33;;;5.50;99.90;;;;;;5007277;28;20275;-79
2021/11/03 01:26:36;;;;;;;13.53;12.60;;;5.50;99.90;;;;;;5019108;28;20256;-79
2021/11/03 01:29:04;;;;;;;15.07;13.87;;;5.50;99.90;;;;;;5006141;28;20203;-79
2021/11/03 01:31:31;;;;;;;9.53;8.73;;;5.60;99.90;;;;;;5009024;28;20224;-79
2021/11/03 01:33:59;;;;;;;7.80;7.10;;;5.60;99.90;;;;;;5011872;28;20220;-79
2021/11/03 01:36:27;;;;;;;6.73;6.10;;;5.70;99.90;;;;;;5007690;28;20336;-79
2021/11/03 01:38:55;;;;;;;7.43;6.37;;;5.70;99.90;;;;;;5010341;28;20978;-79
2021/11/03 01:41:24;;;;;;;7.10;6.07;;;5.70;99.90;;;;;;5007080;28;20408;-79
2021/11/03 01:43:59;;;;;;;7.50;6.00;;;5.80;99.90;;;;;;5009547;28;20639;-79
2021/11/03 01:46:29;;;;;;;6.27;5.63;;;5.70;99.90;;;;;;5015486;28;20204;-79
2021/11/03 01:49:15;;;;;;;6.73;6.07;;;5.70;99.90;;;;;;5004278;28;20571;-79
2021/11/03 01:51:48;;;;;;;8.20;7.40;;;5.70;99.90;;;;;;5020585;28;20211;-79
2021/11/03 01:54:20;;;;;;;9.50;7.50;;;5.70;99.90;;;;;;5009166;28;20220;-79
2021/11/03 01:56:47;;;;;;;8.33;7.63;;;5.60;99.90;;;;;;5013717;28;20581;-79
2021/11/03 01:59:20;;;;;;;8.00;7.37;;;5.60;99.90;;;;;;5006410;28;20639;-79
2021/11/03 02:01:49;;;;;;;9.73;8.93;;;5.60;99.90;;;;;;5003263;28;20196;-79
2021/11/03 02:04:17;;;;;;;10.33;9.53;;;5.50;99.90;;;;;;5022814;28;20216;-79
2021/11/03 02:06:45;;;;;;;9.73;9.03;;;5.50;99.90;;;;;;5004428;28;20207;-79
2021/11/03 02:09:12;;;;;;;9.20;8.40;;;5.60;99.90;;;;;;5002635;28;20223;-79
2021/11/03 02:11:41;;;;;;;6.57;5.50;;;5.60;99.90;;;;;;5011110;28;20654;-79
2021/11/03 02:14:09;;;;;;;6.23;5.63;;;5.50;99.90;;;;;;5014964;28;20583;-79
2021/11/03 02:16:40;;;;;;;5.80;5.20;;;5.60;99.90;;;;;;5008207;28;20192;-79
2021/11/03 02:19:12;;;;;;;5.37;4.97;;;5.60;99.90;;;;;;5004793;28;20296;-79
2021/11/03 02:21:47;;;;;;;6.03;5.43;;;5.60;99.90;;;;;;5005270;28;20275;-79
2021/11/03 02:24:22;;;;;;;5.67;5.07;;;5.70;99.90;;;;;;5011127;28;20219;-78
2021/11/03 02:26:51;;;;;;;6.27;5.67;;;5.80;99.90;;;;;;5014036;28;20727;-79
2021/11/03 02:29:20;;;;;;;6.63;5.47;;;5.80;99.90;;;;;;5016480;28;20614;-79
2021/11/03 02:31:51;;;;;;;6.17;5.47;;;5.80;99.90;;;;;;5011531;28;20201;-79
2021/11/03 02:34:22;;;;;;;6.70;6.10;;;5.80;99.90;;;;;;5018558;28;20704;-77
2021/11/03 02:36:54;;;;;;;7.47;5.90;;;5.80;99.90;;;;;;5010687;28;20204;-79
2021/11/03 02:39:27;;;;;;;6.00;5.40;;;5.90;99.90;;;;;;5006297;28;20259;-79
2021/11/03 02:41:56;;;;;;;6.27;5.67;;;5.90;99.90;;;;;;5010852;28;20208;-78
2021/11/03 02:44:25;;;;;;;5.87;5.27;;;5.90;99.90;;;;;;5002599;28;20221;-79
2021/11/03 02:46:52;;;;;;;8.00;7.40;;;5.90;99.90;;;;;;5003797;28;20251;-79
2021/11/03 02:49:19;;;;;;;6.13;5.53;;;5.90;99.90;;;;;;5015965;28;20193;-78
2021/11/03 02:51:46;;;;;;;6.60;6.00;;;6.00;99.90;;;;;;5009453;28;20196;-79
2021/11/03 02:54:16;;;;;;;11.93;10.97;;;6.00;99.90;;;;;;5017429;28;20224;-79
2021/11/03 02:56:48;;;;;;;6.77;6.10;;;6.00;99.90;;;;;;5006004;28;20211;-79
2021/11/03 02:59:19;;;;;;;6.70;6.00;;;6.00;99.90;;;;;;5005679;28;20251;-79
2021/11/03 03:01:48;;;;;;;7.03;6.33;;;6.00;99.90;;;;;;5014646;28;20196;-79
2021/11/03 03:04:17;;;;;;;7.83;6.50;;;6.00;99.90;;;;;;5005591;28;20223;-79
2021/11/03 03:06:46;;;;;;;7.50;6.70;;;6.00;99.90;;;;;;5008186;28;20201;-79
2021/11/03 03:09:14;;;;;;;7.57;6.33;;;6.00;99.90;;;;;;5014704;28;20199;-79
2021/11/03 03:11:46;;;;;;;6.87;6.20;;;6.00;99.90;;;;;;5004796;28;20251;-79
2021/11/03 03:14:14;;;;;;;7.60;6.87;;;6.00;99.90;;;;;;5007881;28;20666;-79
2021/11/03 03:16:43;;;;;;;7.27;6.57;;;6.00;99.90;;;;;;5009150;28;20665;-79
2021/11/03 03:19:11;;;;;;;7.43;6.33;;;5.90;99.90;;;;;;5005577;28;20477;-79
2021/11/03 03:21:39;;;;;;;7.53;6.83;;;6.00;99.90;;;;;;5005789;28;20250;-79
2021/11/03 03:24:10;;;;;;;7.10;6.27;;;6.00;99.90;;;;;;5016496;28;20220;-79
2021/11/03 03:26:38;;;;;;;6.80;6.20;;;6.00;99.90;;;;;;5006805;28;20200;-79
2021/11/03 03:29:06;;;;;;;7.37;6.57;;;6.10;99.90;;;;;;5011607;28;20815;-79
2021/11/03 03:31:34;;;;;;;7.23;6.50;;;6.10;99.90;;;;;;5011914;28;20295;-79
2021/11/03 03:34:06;;;;;;;8.37;7.43;;;6.00;99.90;;;;;;5009576;28;20216;-79
2021/11/03 03:36:35;;;;;;;9.53;6.97;;;6.10;99.90;;;;;;5011805;28;20677;-79
2021/11/03 03:39:02;;;;;;;7.27;6.57;;;6.10;99.90;;;;;;5007105;28;20291;-79
2021/11/03 03:41:29;;;;;;;7.40;6.60;;;6.10;99.90;;;;;;5008379;28;20231;-79
2021/11/03 03:44:06;;;;;;;7.53;6.73;;;6.10;99.90;;;;;;5015956;28;20217;-81
2021/11/03 03:46:33;;;;;;;9.20;6.67;;;6.00;99.90;;;;;;5017491;28;20555;-77
2021/11/03 03:49:00;;;;;;;8.50;7.70;;;6.10;99.90;;;;;;4996842;28;20204;-81
2021/11/03 03:51:29;;;;;;;8.03;7.10;;;6.10;99.90;;;;;;4994257;28;20206;-81
2021/11/03 03:53:56;;;;;;;8.23;7.30;;;6.10;99.90;;;;;;4996829;28;20298;-80
2021/11/03 03:56:24;;;;;;;8.80;7.23;;;6.10;99.90;;;;;;4997566;28;20205;-81
2021/11/03 03:58:53;;;;;;;7.47;6.77;;;6.00;99.90;;;;;;4999428;28;20691;-80
2021/11/03 04:01:24;;;;;;;7.47;6.77;;;6.00;99.90;;;;;;4997200;28;20602;-81
2021/11/03 04:03:52;;;;;;;8.63;6.67;;;6.00;99.90;;;;;;5013878;28;20637;-81
2021/11/03 04:06:19;;;;;;;8.37;7.57;;;6.00;99.90;;;;;;4996442;28;20216;-81
2021/11/03 04:08:47;;;;;;;8.00;7.20;;;6.00;99.90;;;;;;4999104;28;20669;-81
2021/11/03 04:11:15;;;;;;;8.47;7.63;;;6.10;99.90;;;;;;4998877;28;20225;-81
2021/11/03 04:13:42;;;;;;;9.53;7.13;;;6.10;99.90;;;;;;4996119;28;20731;-78
2021/11/03 04:16:10;;;;;;;7.30;6.60;;;6.10;99.90;;;;;;5007308;28;20200;-79
2021/11/03 04:18:36;;;;;;;17.00;15.80;;;6.20;99.90;;;;;;5005156;28;20196;-78
2021/11/03 04:21:05;;;;;;;7.30;6.60;;;6.20;99.90;;;;;;5009274;28;20252;-79
2021/11/03 04:23:33;;;;;;;7.30;6.60;;;6.30;99.90;;;;;;5017673;28;20605;-78
2021/11/03 04:26:02;;;;;;;7.90;6.97;;;6.30;99.90;;;;;;5006965;28;20224;-78
2021/11/03 04:28:31;;;;;;;8.63;6.80;;;6.40;99.90;;;;;;5007017;28;20200;-79
2021/11/03 04:30:59;;;;;;;6.97;6.37;;;6.40;99.90;;;;;;5011602;28;20205;-79
2021/11/03 04:33:26;;;;;;;7.20;6.50;;;6.50;99.90;;;;;;5009184;28;20209;-79
2021/11/03 04:35:53;;;;;;;14.67;13.67;;;6.50;99.90;;;;;;5005298;28;20587;-79
2021/11/03 04:38:20;;;;;;;11.63;10.73;;;6.50;99.90;;;;;;5007963;28;20207;-80
2021/11/03 04:40:47;;;;;;;8.40;7.70;;;6.50;99.90;;;;;;5013173;28;20227;-79
2021/11/03 04:43:16;;;;;;;7.80;6.40;;;6.50;99.90;;;;;;5016570;28;20205;-79
2021/11/03 04:45:43;;;;;;;8.20;6.20;;;6.50;99.90;;;;;;5011695;28;20207;-79
2021/11/03 04:48:10;;;;;;;6.30;5.80;;;6.50;99.90;;;;;;5012126;28;20751;-78
2021/11/03 04:50:37;;;;;;;6.50;5.83;;;6.50;99.90;;;;;;5012254;28;20582;-79
2021/11/03 04:53:04;;;;;;;6.50;5.90;;;6.40;99.90;;;;;;5006973;28;20402;-79
2021/11/03 04:55:34;;;;;;;6.87;6.17;;;6.40;99.90;;;;;;5007582;28;20209;-79
2021/11/03 04:58:02;;;;;;;14.80;13.70;;;6.40;99.90;;;;;;5008001;28;20201;-79
2021/11/03 05:00:34;;;;;;;14.07;13.17;;;6.40;99.90;;;;;;5001195;28;20218;-79
2021/11/03 05:03:04;;;;;;;16.60;15.47;;;6.40;99.90;;;;;;5023431;28;20213;-79
2021/11/03 05:05:32;;;;;;;15.37;14.37;;;6.40;99.90;;;;;;5006569;28;20223;-78
2021/11/03 05:07:58;;;;;;;6.77;6.17;;;6.40;99.90;;;;;;4997273;28;20284;-79
2021/11/03 05:10:25;;;;;;;7.97;7.17;;;6.40;99.90;;;;;;5009125;28;20203;-78
2021/11/03 05:12:55;;;;;;;7.50;6.80;;;6.40;99.90;;;;;;5007882;28;20213;-79
2021/11/03 05:15:23;;;;;;;7.80;7.10;;;6.30;99.90;;;;;;5008742;28;20225;-78
2021/11/03 05:17:51;;;;;;;14.43;13.43;;;6.20;99.90;;;;;;5020651;28;20244;-79
2021/11/03 05:20:20;;;;;;;17.50;16.40;;;6.20;99.90;;;;;;5007964;28;20204;-79
2021/11/03 05:22:49;;;;;;;17.73;16.63;;;6.30;99.90;;;;;;5006277;28;20201;-79
2021/11/03 05:25:17;;;;;;;18.43;17.20;;;6.30;99.90;;;;;;5010882;28;20702;-78
2021/11/03 05:27:44;;;;;;;17.07;16.03;;;6.30;99.90;;;;;;5013913;28;20725;-76
2021/11/03 05:30:12;;;;;;;17.50;16.50;;;6.30;99.90;;;;;;5008860;28;20196;-79
2021/11/03 05:32:38;;;;;;;18.30;17.07;;;6.30;99.90;;;;;;5017966;28;20201;-78
2021/11/03 05:35:09;;;;;;;18.13;17.03;;;6.20;99.90;;;;;;5018302;28;20727;-78
2021/11/03 05:37:37;;;;;;;16.63;15.53;;;6.20;99.90;;;;;;5005448;28;20208;-79
2021/11/03 05:40:06;;;;;;;17.03;16.00;;;6.20;99.90;;;;;;5016526;28;20220;-78
2021/11/03 05:42:33;;;;;;;17.80;16.40;;;6.20;99.90;;;;;;5015227;28;20239;-78
2021/11/03 05:45:00;;;;;;;17.97;16.70;;;6.20;99.90;;;;;;5017512;28;20215;-77
2021/11/03 05:47:29;;;;;;;17.10;16.00;;;6.20;99.90;;;;;;5010713;28;20213;-77
2021/11/03 05:49:57;;;;;;;16.37;15.43;;;6.30;99.90;;;;;;5013334;28;20189;-78
2021/11/03 05:52:26;;;;;;;17.47;16.30;;;6.20;99.90;;;;;;5017943;28;20269;-82
2021/11/03 05:54:53;;;;;;;16.77;15.67;;;6.10;99.90;;;;;;5006137;28;20283;-80
2021/11/03 05:57:25;;;;;;;11.53;10.67;;;6.10;99.90;;;;;;5007913;28;20442;-78
2021/11/03 05:59:53;;;;;;;8.33;7.73;;;6.10;99.90;;;;;;4994209;28;20231;-78
2021/11/03 06:02:20;;;;;;;7.90;7.20;;;6.00;99.90;;;;;;4998720;28;20208;-77
2021/11/03 06:04:47;;;;;;;16.47;15.47;;;6.00;99.90;;;;;;5012122;28;20212;-77
2021/11/03 06:07:15;;;;;;;9.53;8.73;;;5.90;99.90;;;;;;5013029;28;20201;-77
2021/11/03 06:09:43;;;;;;;7.23;6.60;;;5.80;99.90;;;;;;5020421;28;20257;-78
2021/11/03 06:12:12;;;;;;;11.47;10.67;;;5.70;99.90;;;;;;5016588;28;20728;-78
2021/11/03 06:14:38;;;;;;;8.10;7.50;;;5.70;99.90;;;;;;5012418;28;20224;-78
2021/11/03 06:17:05;;;;;;;17.00;15.90;;;5.60;99.90;;;;;;5005312;28;20201;-78
2021/11/03 06:19:32;;;;;;;8.87;8.00;;;5.60;99.90;;;;;;5019391;28;20196;-78
2021/11/03 06:21:59;;;;;;;12.23;11.30;;;5.50;99.90;;;;;;5005062;28;20224;-78
2021/11/03 06:24:32;;;;;;;11.17;10.13;;;5.60;99.90;;;;;;5011821;28;20708;-78
2021/11/03 06:27:01;;;;;;;7.13;6.43;;;5.50;99.90;;;;;;5006247;28;20291;-77
2021/11/03 06:29:28;;;;;;;10.53;9.63;;;5.60;99.90;;;;;;5015420;28;20272;-79
2021/11/03 06:31:55;;;;;;;8.80;8.10;;;5.70;99.90;;;;;;5002892;28;20200;-78
2021/11/03 06:34:22;;;;;;;15.97;14.87;;;5.70;99.90;;;;;;5005221;28;20716;-76
2021/11/03 06:36:49;;;;;;;17.57;16.33;;;5.80;99.90;;;;;;5011061;28;20271;-79
2021/11/03 06:39:16;;;;;;;14.67;13.60;;;5.90;99.90;;;;;;5015823;28;20212;-78
2021/11/03 06:41:47;;;;;;;11.43;10.53;;;5.90;99.90;;;;;;5017565;28;20215;-78
2021/11/03 06:44:16;;;;;;;9.40;8.60;;;6.00;99.90;;;;;;5012162;28;20248;-78
2021/11/03 06:46:43;;;;;;;7.07;6.47;;;6.00;99.90;;;;;;5002452;28;20587;-78
2021/11/03 06:49:10;;;;;;;7.63;7.00;;;6.00;99.90;;;;;;5010714;28;20205;-78
2021/11/03 06:51:37;;;;;;;8.20;7.40;;;6.10;99.90;;;;;;5010531;28;20609;-78
2021/11/03 06:54:04;;;;;;;8.03;7.33;;;6.10;99.90;;;;;;5009528;28;20271;-78
2021/11/03 06:56:31;;;;;;;6.80;6.00;;;6.20;99.90;;;;;;5005364;28;20223;-79
2021/11/03 06:58:58;;;;;;;12.40;11.50;;;6.30;99.90;;;;;;5016359;28;20243;-78
2021/11/03 07:01:27;;;;;;;10.43;9.63;;;6.30;99.90;;;;;;5005227;28;20212;-78
2021/11/03 07:03:56;;;;;;;14.13;13.23;;;6.40;99.90;;;;;;5013141;28;20216;-78
2021/11/03 07:06:24;;;;;;;7.53;6.90;;;6.50;99.90;;;;;;5015317;28;20266;-78
2021/11/03 07:08:54;;;;;;;8.57;7.87;;;6.50;99.90;;;;;;5018209;28;20204;-78
2021/11/03 07:11:22;;;;;;;10.00;9.20;;;6.60;99.90;;;;;;5006685;28;20305;-79
2021/11/03 07:13:49;;;;;;;17.03;15.87;;;6.70;99.90;;;;;;5008359;28;20233;-78
2021/11/03 07:16:16;;;;;;;17.10;16.03;;;6.70;99.90;;;;;;5006024;28;20204;-79
2021/11/03 07:18:44;;;;;;;16.80;15.80;;;6.70;99.90;;;;;;5005228;28;20212;-78
2021/11/03 07:21:11;;;;;;;16.37;15.37;;;6.70;99.90;;;;;;5005319;28;20633;-77
2021/11/03 07:23:38;;;;;;;16.63;15.63;;;6.80;99.90;;;;;;5012805;28;20284;-78
2021/11/03 07:26:05;;;;;;;16.80;15.80;;;6.80;99.90;;;;;;5018923;28;20827;-77
2021/11/03 07:28:32;;;;;;;16.33;15.33;;;6.80;99.90;;;;;;5016018;28;20205;-79
2021/11/03 07:30:59;;;;;;;16.00;15.10;;;6.90;99.90;;;;;;5013711;28;20320;-77
2021/11/03 07:33:26;;;;;;;16.10;15.17;;;6.90;99.90;;;;;;5013007;28;20708;-79
2021/11/03 07:35:54;;;;;;;16.80;15.80;;;7.00;99.90;;;;;;5012358;28;20206;-78
2021/11/03 07:38:21;;;;;;;16.80;15.80;;;7.10;99.90;;;;;;5012220;28;20580;-77
2021/11/03 07:40:51;;;;;;;16.30;15.30;;;7.00;99.90;;;;;;5010039;28;20218;-77
2021/11/03 07:43:19;;;;;;;17.13;15.97;;;7.10;99.90;;;;;;5015050;28;20205;-77
2021/11/03 07:45:47;;;;;;;16.53;15.53;;;7.10;99.90;;;;;;5006132;28;20205;-77
2021/11/03 07:48:15;;;;;;;16.80;15.80;;;7.20;99.90;;;;;;5007886;28;20576;-78
2021/11/03 07:50:49;;;;;;;16.23;15.23;;;7.30;99.90;;;;;;5014504;28;20204;-77
2021/11/03 07:53:18;;;;;;;5.73;5.23;;;7.30;99.90;;;;;;5012141;28;20202;-79
2021/11/03 07:55:48;;;;;;;5.70;5.20;;;7.40;99.90;;;;;;5011205;28;20205;-78
2021/11/03 07:58:17;;;;;;;5.53;5.13;;;7.50;99.90;;;;;;5015469;28;20719;-77
2021/11/03 08:00:45;;;;;;;5.50;5.00;;;7.50;99.90;;;;;;5009059;28;21239;-79
2021/11/03 08:03:12;;;;;;;5.90;5.40;;;7.60;99.90;;;;;;5013301;28;20210;-79
2021/11/03 08:05:39;;;;;;;6.80;6.07;;;7.70;99.90;;;;;;5016935;28;20253;-79
2021/11/03 08:08:11;;;;;;;6.47;5.87;;;7.60;99.90;;;;;;4995130;28;20594;-80
2021/11/03 08:10:42;;;;;;;6.53;5.90;;;7.60;99.90;;;;;;5012467;28;20208;-80
2021/11/03 08:13:17;;;;;;;6.10;5.40;;;7.60;99.90;;;;;;5000798;28;20306;-79
2021/11/03 08:15:46;;;;;;;6.40;5.80;;;7.60;99.90;;;;;;5014643;28;20201;-78
2021/11/03 08:18:15;;;;;;;6.47;5.97;;;7.60;99.90;;;;;;5017272;28;20712;-79
2021/11/03 08:20:44;;;;;;;7.37;6.10;;;7.60;99.90;;;;;;5012590;28;20210;-80
2021/11/03 08:23:13;;;;;;;6.27;5.67;;;7.60;99.90;;;;;;5013339;28;20815;-80
2021/11/03 08:25:43;;;;;;;6.43;5.87;;;7.60;99.90;;;;;;5007492;28;20203;-80
2021/11/03 08:28:11;;;;;;;6.20;5.57;;;7.60;99.90;;;;;;5010042;28;20220;-80
2021/11/03 08:30:40;;;;;;;13.47;12.57;;;7.60;99.90;;;;;;5012655;28;20261;-80
2021/11/03 08:33:10;;;;;;;8.27;7.57;;;7.60;99.90;;;;;;5021708;28;20199;-79
2021/11/03 08:35:41;;;;;;;6.20;5.60;;;7.60;99.90;;;;;;5016981;28;20225;-79
2021/11/03 08:38:12;;;;;;;6.10;5.60;;;7.70;99.90;;;;;;5015370;28;20205;-79
2021/11/03 08:40:39;;;;;;;6.23;5.63;;;7.90;99.90;;;;;;5006361;28;20204;-79
2021/11/03 08:43:18;;;;;;;6.60;5.30;;;8.00;99.90;;;;;;4988301;28;20247;-78
2021/11/03 08:45:47;;;;;;;5.77;5.17;;;8.20;99.90;;;;;;5001537;28;20242;-78
2021/11/03 08:48:14;;;;;;;12.77;11.97;;;8.40;99.90;;;;;;4994903;28;20215;-77
2021/11/03 08:50:43;;;;;;;5.10;4.70;;;8.60;99.90;;;;;;5010424;28;20200;-79
2021/11/03 08:53:11;;;;;;;16.40;15.47;;;8.70;99.90;;;;;;5012589;28;20204;-78
2021/11/03 08:55:38;;;;;;;16.57;15.67;;;8.70;99.90;;;;;;5025234;28;20233;-77
2021/11/03 08:58:12;;;;;;;16.17;15.17;;;8.70;99.90;;;;;;5009036;28;20227;-78
2021/11/03 09:00:41;;;;;;;5.63;5.13;;;8.70;99.90;;;;;;5015447;28;20203;-78
2021/11/03 09:03:08;;;;;;;6.83;5.30;;;8.70;99.90;;;;;;5009981;28;20203;-78
2021/11/03 09:05:36;;;;;;;7.40;6.70;;;8.70;99.90;;;;;;5010377;28;20223;-79
2021/11/03 09:08:03;;;;;;;6.33;5.73;;;8.80;99.90;;;;;;4997343;28;20677;-78
2021/11/03 09:10:34;;;;;;;15.07;14.07;;;9.10;99.90;;;;;;5013643;28;20699;-79
2021/11/03 09:13:02;;;;;;;8.77;8.07;;;9.30;99.90;;;;;;5006569;28;20215;-78
2021/11/03 09:15:31;;;;;;;11.77;10.97;;;9.50;99.90;;;;;;5004593;28;20246;-78
2021/11/03 09:17:59;;;;;;;13.60;12.43;;;9.50;99.90;;;;;;5015760;28;20548;-78
2021/11/03 09:20:26;;;;;;;14.20;13.27;;;9.50;99.90;;;;;;5013102;28;20199;-79
2021/11/03 09:22:53;;;;;;;6.10;5.50;;;9.50;99.90;;;;;;5014470;28;20219;-78
2021/11/03 09:25:23;;;;;;;11.30;10.50;;;9.40;99.90;;;;;;5012633;28;20258;-78
2021/11/03 09:27:51;;;;;;;14.90;13.90;;;9.50;99.90;;;;;;5004131;28;20262;-78
2021/11/03 09:30:23;;;;;;;14.93;13.93;;;9.50;99.90;;;;;;5015991;28;20282;-78
2021/11/03 09:32:58;;;;;;;15.27;14.07;;;9.50;99.90;;;;;;5013754;28;20207;-78
2021/11/03 09:35:29;;;;;;;13.87;12.73;;;9.50;99.90;;;;;;5005355;28;20673;-78
2021/11/03 09:37:57;;;;;;;12.63;11.73;;;9.50;99.90;;;;;;5019600;28;20199;-77
2021/11/03 09:40:29;;;;;;;13.57;12.67;;;9.60;99.90;;;;;;5016433;28;20691;-79
2021/11/03 09:42:56;;;;;;;13.77;12.73;;;9.70;99.90;;;;;;5011123;28;20235;-78
2021/11/03 09:45:31;;;;;;;6.53;4.77;;;9.70;99.90;;;;;;5013082;28;20285;-78
2021/11/03 09:48:05;;;;;;;8.37;7.77;;;9.80;99.90;;;;;;5020836;28;20219;-78
2021/11/03 09:50:40;;;;;;;9.90;9.17;;;10.00;99.90;;;;;;5013895;28;20203;-78
2021/11/03 09:53:23;;;;;;;6.37;5.67;;;9.90;99.90;;;;;;5009758;28;20242;-78
2021/11/03 09:55:50;;;;;;;7.43;6.83;;;10.00;99.90;;;;;;5006581;28;20203;-77
2021/11/03 09:58:30;;;;;;;9.57;8.87;;;10.00;99.90;;;;;;5011237;28;20625;-78
2021/11/03 10:01:03;;;;;;;7.70;7.20;;;10.00;99.90;;;;;;5004841;28;20211;-78
2021/11/03 10:03:41;;;;;;;4.60;4.20;;;10.00;99.90;;;;;;5007437;28;20224;-78
2021/11/03 10:06:14;;;;;;;11.33;10.63;;;10.00;99.90;;;;;;5000573;28;20299;-78
2021/11/03 10:08:44;;;;;;;11.30;10.60;;;9.90;99.90;;;;;;5015666;28;20203;-79
2021/11/03 10:11:18;;;;;;;10.77;10.10;;;9.90;99.90;;;;;;5027876;28;20200;-78
2021/11/03 10:13:47;;;;;;;6.87;6.37;;;9.90;99.90;;;;;;5005531;28;20258;-79
2021/11/03 10:16:28;;;;;;;5.10;4.60;;;9.90;99.90;;;;;;5008778;28;20632;-78
2021/11/03 10:19:06;;;;;;;8.70;7.93;;;10.00;99.90;;;;;;5021772;28;20204;-78
2021/11/03 10:21:40;;;;;;;5.03;4.53;;;10.00;99.90;;;;;;5016626;28;20235;-78
2021/11/03 10:24:23;;;;;;;4.83;4.43;;;9.90;99.90;;;;;;4998643;28;20220;-78
2021/11/03 10:26:53;;;;;;;5.17;4.50;;;10.00;99.90;;;;;;5006381;28;20665;-78
2021/11/03 10:29:26;;;;;;;5.33;4.93;;;10.00;99.90;;;;;;5008320;28;20243;-78
2021/11/03 10:31:57;;;;;;;5.07;4.30;;;10.10;99.90;;;;;;5006504;28;20661;-78
2021/11/03 10:34:28;;;;;;;4.47;4.07;;;10.10;99.90;;;;;;5017276;28;20637;-78
2021/11/03 10:37:12;;;;;;;5.00;4.47;;;10.00;99.90;;;;;;5003621;28;20255;-78
2021/11/03 10:39:44;;;;;;;4.37;4.07;;;10.00;99.90;;;;;;5016409;28;20263;-78
2021/11/03 10:42:19;;;;;;;11.17;10.47;;;10.00;99.90;;;;;;5018205;28;20292;-79
2021/11/03 10:44:46;;;;;;;6.20;5.63;;;10.00;99.90;;;;;;5010664;28;20726;-77
2021/11/03 10:47:15;;;;;;;5.68;4.53;;;10.00;99.90;;;;;;5019319;28;20440;-78
2021/11/03 10:50:22;;;;;;;4.47;3.80;;;10.00;99.90;;;;;;5010611;28;20205;-80
2021/11/03 10:52:54;;;;;;;9.33;8.60;;;10.10;99.90;;;;;;5003688;28;20193;-79
2021/11/03 10:55:26;;;;;;;4.00;3.70;;;10.00;99.90;;;;;;5016452;28;20542;-80
2021/11/03 10:58:01;;;;;;;4.43;3.87;;;10.00;99.90;;;;;;5015891;28;20199;-78
2021/11/03 11:00:31;;;;;;;7.83;7.23;;;9.90;99.90;;;;;;5016563;28;20199;-80
2021/11/03 11:03:02;;;;;;;4.00;3.63;;;10.00;99.90;;;;;;5006549;28;20223;-79
2021/11/03 11:05:33;;;;;;;4.37;3.97;;;10.00;99.90;;;;;;5012363;28;20224;-79
2021/11/03 11:08:06;;;;;;;6.30;5.80;;;10.00;99.90;;;;;;5019199;28;20624;-80
2021/11/03 11:10:39;;;;;;;4.33;3.90;;;10.00;99.90;;;;;;5020606;28;20535;-80
2021/11/03 11:13:13;;;;;;;13.23;12.33;;;10.00;99.90;;;;;;5012436;28;20719;-80
2021/11/03 11:15:51;;;;;;;13.63;12.90;;;10.00;99.90;;;;;;5018684;28;20202;-79
2021/11/03 11:18:40;;;;;;;15.57;14.47;;;10.10;99.90;;;;;;5003692;28;20196;-79
2021/11/03 11:21:14;;;;;;;14.23;13.33;;;10.10;99.90;;;;;;5002784;28;20208;-79
2021/11/03 11:23:51;;;;;;;13.67;12.77;;;10.00;99.90;;;;;;5012412;28;20223;-79
2021/11/03 11:26:26;;;;;;;13.23;12.43;;;10.00;99.90;;;;;;5007573;28;20250;-80
2021/11/03 11:29:04;;;;;;;12.97;12.17;;;9.90;99.90;;;;;;5018004;28;20196;-79
2021/11/03 11:31:37;;;;;;;12.87;12.07;;;9.90;99.90;;;;;;5016641;28;20196;-79
2021/11/03 11:34:17;;;;;;;13.47;12.60;;;9.90;99.90;;;;;;5018279;28;20220;-80
2021/11/03 11:36:52;;;;;;;12.30;11.53;;;10.00;99.90;;;;;;5010177;28;20274;-79
2021/11/03 11:39:32;;;;;;;12.67;11.87;;;10.00;99.90;;;;;;5002096;28;20404;-79
2021/11/03 11:42:07;;;;;;;12.10;11.40;;;10.10;99.90;;;;;;4996917;28;20495;-79
2021/11/03 11:44:40;;;;;;;11.80;11.20;;;10.20;99.90;;;;;;5021154;28;20215;-79
2021/11/03 11:47:15;;;;;;;13.63;12.83;;;10.30;99.90;;;;;;5015310;28;20200;-80
2021/11/03 11:49:45;;;;;;;12.50;11.80;;;10.40;99.90;;;;;;5006488;28;20199;-80
2021/11/03 11:52:25;;;;;;;14.13;13.30;;;10.40;99.90;;;;;;5017126;28;20219;-79
2021/11/03 11:55:19;;;;;;;14.10;13.27;;;10.50;99.90;;;;;;5010583;28;20274;-79
2021/11/03 11:58:12;;;;;;;14.20;13.30;;;10.50;99.90;;;;;;5006236;28;20208;-79
2021/11/03 12:01:00;;;;;;;3.53;3.33;;;10.70;99.90;;;;;;5020287;28;20325;-79
2021/11/03 12:03:28;;;;;;;9.50;8.80;;;10.80;99.90;;;;;;5008088;28;20277;-80
2021/11/03 12:06:07;;;;;;;3.90;3.50;;;11.00;99.90;;;;;;5017661;28;20798;-79
2021/11/03 12:08:59;;;;;;;3.40;3.10;;;11.10;99.90;;;;;;5007857;28;20243;-79
2021/11/03 12:11:29;;;;;;;3.90;3.57;;;11.00;99.90;;;;;;5006720;28;20267;-79
2021/11/03 12:14:11;;;;;;;10.60;9.90;;;11.10;99.90;;;;;;5006515;28;20220;-79
2021/11/03 12:16:58;;;;;;;3.97;3.67;;;11.10;99.90;;;;;;5018116;28;20546;-79
2021/11/03 12:19:49;;;;;;;3.67;3.40;;;11.20;99.90;;;;;;5011638;28;20192;-79
2021/11/03 12:22:36;;;;;;;3.77;3.47;;;11.20;99.90;;;;;;5000508;28;20220;-80
2021/11/03 12:25:38;;;;;;;3.90;3.50;;;11.30;99.90;;;;;;4996875;28;20217;-80
2021/11/03 12:28:34;;;;;;;3.83;3.53;;;11.30;99.90;;;;;;5011062;28;20204;-81
2021/11/03 12:31:17;;;;;;;4.10;3.80;;;11.40;99.90;;;;;;5001020;28;20241;-80
2021/11/03 12:34:21;;;;;;;4.53;3.47;;;11.40;99.90;;;;;;5015233;28;20267;-78
2021/11/03 12:37:28;;;;;;;3.53;3.33;;;11.40;99.90;;;;;;5007077;28;20198;-79
2021/11/03 12:40:27;;;;;;;4.17;3.70;;;11.30;99.90;;;;;;5013532;28;20642;-78
2021/11/03 12:43:10;;;;;;;3.50;3.30;;;11.30;99.90;;;;;;5002435;28;20210;-78
2021/11/03 12:45:42;;;;;;;3.40;3.10;;;11.30;99.90;;;;;;5014537;28;20626;-78
2021/11/03 12:48:18;;;;;;;3.30;3.00;;;11.20;99.90;;;;;;5011475;28;20692;-79
2021/11/03 12:50:47;;;;;;;11.67;11.07;;;11.20;99.90;;;;;;5006050;28;20248;-79
2021/11/03 12:53:20;;;;;;;13.20;12.50;;;11.10;99.90;;;;;;5009974;28;20201;-79
2021/11/03 12:55:52;;;;;;;7.70;6.10;;;11.00;99.90;;;;;;5002956;28;20260;-78
2021/11/03 12:58:41;;;;;;;12.50;11.80;;;10.90;99.90;;;;;;5008407;28;20201;-79
2021/11/03 13:01:20;;;;;;;10.80;10.10;;;10.80;99.90;;;;;;5003981;28;20696;-78
2021/11/03 13:03:51;;;;;;;11.60;10.83;;;10.70;99.90;;;;;;5014186;28;20232;-78